Time;durP1;ratioP1;P1;durP2;ratioP2;P2;SDS_P1;SDS_P2;PMS_P1;PMS_P2;Temp;Humidity;BMP_temperature;BMP_pressure;BME280_temperature;BME280_humidity;BME280_pressure;Samples;Min_cycle;Max_cycle;Signal;HPM_P1;HPM_P2
2022/03/19 00:01:06;;;;;;;;;;;;;;;;;;5116902;27;19931;-48
2022/03/19 00:03:32;;;;;;;;;;;;;;;;;;5120394;27;20411;-50
2022/03/19 00:05:58;;;;;;;;;;;;;;;;;;5123087;27;20041;-51
2022/03/19 00:08:24;;;;;;;;;;;;;;;;;;5123878;27;20027;-49
2022/03/19 00:10:50;;;;;;;;;;;;;;;;;;5124711;27;19927;-50
2022/03/19 00:13:17;;;;;;;;;;;;;;;;;;5122202;27;19924;-50
2022/03/19 00:15:43;;;;;;;;;;;;;;;;;;5116614;27;19924;-53
2022/03/19 00:18:09;;;;;;;;;;;;;;;;;;5118404;27;19977;-49
2022/03/19 00:20:36;;;;;;;;;;;;;;;;;;5129295;27;20277;-51
2022/03/19 00:23:01;;;;;;;;;;;;;;;;;;5129672;27;19924;-49
2022/03/19 00:25:27;;;;;;;;;;;;;;;;;;5128188;27;19930;-51
2022/03/19 00:27:53;;;;;;;;;;;4.90;99.90;;;;;;5134749;27;20425;-49
2022/03/19 00:30:18;;;;;;;;;;;5.00;99.90;;;;;;5122145;27;19924;-51
2022/03/19 00:32:44;;;;;;;;;;;5.10;99.90;;;;;;5129805;27;19959;-49
2022/03/19 00:35:10;;;;;;;;;;;;;;;;;;5121158;27;20393;-49
2022/03/19 00:37:35;;;;;;;;;;;;;;;;;;5133324;27;19935;-49
2022/03/19 00:40:01;;;;;;;;;;;;;;;;;;5127090;27;19924;-49
2022/03/19 00:42:30;;;;;;;;;;;;;;;;;;5122682;27;20449;-50
2022/03/19 00:44:57;;;;;;;;;;;;;;;;;;5120359;27;19924;-50
2022/03/19 00:47:23;;;;;;;;;;;;;;;;;;5128998;27;19931;-52
2022/03/19 00:49:49;;;;;;;;;;;5.00;99.90;;;;;;5123180;27;19924;-50
2022/03/19 00:52:14;;;;;;;;;;;5.10;99.90;;;;;;5126290;27;20454;-49
2022/03/19 00:54:40;;;;;;;;;;;5.10;99.90;;;;;;5125491;27;20301;-49
2022/03/19 00:57:05;;;;;;;;;;;5.00;99.90;;;;;;5127939;27;19931;-49
2022/03/19 00:59:31;;;;;;;;;;;5.00;99.90;;;;;;5123472;27;19923;-50
2022/03/19 01:01:56;;;;;;;;;;;5.00;99.90;;;;;;5123826;27;19939;-50
2022/03/19 01:04:22;;;;;;;;;;;4.90;99.90;;;;;;5125174;27;20015;-49
2022/03/19 01:06:47;;;;;;;;;;;4.90;99.90;;;;;;5133017;27;19930;-50
2022/03/19 01:09:12;;;;;;;;;;;4.90;99.90;;;;;;5130411;27;20006;-50
2022/03/19 01:11:38;;;;;;;;;;;;;;;;;;5132787;27;19923;-49
2022/03/19 01:14:04;;;;;;;;;;;;;;;;;;5126861;27;19923;-50
2022/03/19 01:16:30;;;;;;;;;;;4.80;99.90;;;;;;5125123;27;19930;-49
2022/03/19 01:18:55;;;;;;;;;;;5.00;99.90;;;;;;5129563;27;19927;-50
2022/03/19 01:21:21;;;;;;;;;;;4.70;99.90;;;;;;5126586;27;19923;-50
2022/03/19 01:23:46;;;;;;;;;;;4.90;99.90;;;;;;5125244;27;20274;-49
2022/03/19 01:26:12;;;;;;;;;;;4.90;99.90;;;;;;5130678;27;19923;-49
2022/03/19 01:28:38;;;;;;;;;;;4.60;99.90;;;;;;5130550;27;19927;-52
2022/03/19 01:31:03;;;;;;;;;;;4.70;99.90;;;;;;5116450;27;19930;-49
2022/03/19 01:33:29;;;;;;;;;;;4.80;99.90;;;;;;5123603;27;19924;-51
2022/03/19 01:35:54;;;;;;;;;;;4.70;99.90;;;;;;5126888;27;20442;-53
2022/03/19 01:38:20;;;;;;;;;;;4.70;99.90;;;;;;5132542;27;20281;-49
2022/03/19 01:40:45;;;;;;;;;;;4.60;99.90;;;;;;5127908;27;20026;-51
2022/03/19 01:43:11;;;;;;;;;;;4.70;99.90;;;;;;5123469;27;19931;-49
2022/03/19 01:45:36;;;;;;;;;;;4.70;99.90;;;;;;5126921;27;19932;-49
2022/03/19 01:48:02;;;;;;;;;;;4.60;99.90;;;;;;5131239;27;19923;-50
2022/03/19 01:50:28;;;;;;;;;;;4.70;99.90;;;;;;5130820;27;19986;-49
2022/03/19 01:52:53;;;;;;;;;;;;;;;;;;5132944;27;19963;-50
2022/03/19 01:55:21;;;;;;;;;;;4.50;99.90;;;;;;5121577;27;20002;-51
2022/03/19 01:57:47;;;;;;;;;;;4.40;99.90;;;;;;5123550;27;19954;-50
2022/03/19 02:00:16;;;;;;;;;;;4.40;99.90;;;;;;5115004;27;20369;-49
2022/03/19 02:02:42;;;;;;;;;;;4.40;99.90;;;;;;5116951;27;20301;-49
2022/03/19 02:05:10;;;;;;;;;;;4.40;99.90;;;;;;5125187;27;19932;-48
2022/03/19 02:07:36;;;;;;;;;;;4.40;99.90;;;;;;5119694;27;20377;-49
2022/03/19 02:10:01;;;;;;;;;;;4.30;99.90;;;;;;5120030;27;19924;-49
2022/03/19 02:12:27;;;;;;;;;;;4.30;99.90;;;;;;5122598;27;19924;-50
2022/03/19 02:14:52;;;;;;;;;;;4.30;99.90;;;;;;5119372;27;19930;-48
2022/03/19 02:17:18;;;;;;;;;;;4.30;99.90;;;;;;5119177;27;20301;-48
2022/03/19 02:19:50;;;;;;;;;;;4.30;99.90;;;;;;5122257;27;20023;-48
2022/03/19 02:22:23;;;;;;;;;;;4.30;99.90;;;;;;5128735;27;19930;-49
2022/03/19 02:27:34;;;;;;;;;;;4.20;99.90;;;;;;5129144;27;19975;-48
2022/03/19 02:30:00;;;;;;;;;;;4.20;99.90;;;;;;5120632;27;19946;-48
2022/03/19 02:32:26;;;;;;;;;;;4.20;99.90;;;;;;5128973;27;20357;-48
2022/03/19 02:34:52;;;;;;;;;;;4.20;99.90;;;;;;5117937;27;19934;-50
2022/03/19 02:37:18;;;;;;;;;;;4.20;99.90;;;;;;5122220;27;19931;-49
2022/03/19 02:39:43;;;;;;;;;;;4.20;99.90;;;;;;5113815;27;19924;-49
2022/03/19 02:42:09;;;;;;;;;;;4.10;99.90;;;;;;5123733;27;19968;-48
2022/03/19 02:44:35;;;;;;;;;;;4.10;99.90;;;;;;5120186;27;19924;-48
2022/03/19 02:47:02;;;;;;;;;;;4.10;99.90;;;;;;5127941;27;19927;-48
2022/03/19 02:49:27;;;;;;;;;;;4.00;99.90;;;;;;5124780;27;19945;-48
2022/03/19 02:51:54;;;;;;;;;;;4.10;99.90;;;;;;5111453;22;20378;-55
2022/03/19 02:54:21;;;;;;;;;;;4.10;99.90;;;;;;5050556;28;20399;-55
2022/03/19 02:56:46;;;;;;;;;;;4.00;99.90;;;;;;5049766;28;19933;-55
2022/03/19 02:59:13;;;;;;;;;;;4.10;99.90;;;;;;5030874;28;19971;-55
2022/03/19 03:01:39;;;;;;;;;;;4.00;99.90;;;;;;5049343;28;19982;-55
2022/03/19 03:04:04;;;;;;;;;;;4.10;99.90;;;;;;5050434;28;19931;-55
2022/03/19 03:06:34;;;;;;;;;;;4.00;99.90;;;;;;5050869;28;20383;-55
2022/03/19 03:08:59;;;;;;;;;;;4.00;99.90;;;;;;5049673;28;19924;-55
2022/03/19 03:11:25;;;;;;;;;;;4.00;99.90;;;;;;5051523;28;20371;-54
2022/03/19 03:13:50;;;;;;;;;;;4.00;99.90;;;;;;5048890;28;19933;-54
2022/03/19 03:16:16;;;;;;;;;;;4.00;99.90;;;;;;5049546;28;19932;-55
2022/03/19 03:18:41;;;;;;;;;;;3.90;99.90;;;;;;5048959;28;19925;-55
2022/03/19 03:21:07;;;;;;;;;;;4.00;99.90;;;;;;5050063;28;19932;-55
2022/03/19 03:23:33;;;;;;;;;;;3.90;99.90;;;;;;5047613;28;20348;-53
2022/03/19 03:25:58;;;;;;;;;;;4.00;99.90;;;;;;5051323;28;19929;-55
2022/03/19 03:28:24;;;;;;;;;;;3.90;99.90;;;;;;5049117;28;19940;-54
2022/03/19 03:30:49;;;;;;;;;;;3.90;99.90;;;;;;5051193;28;19932;-53
2022/03/19 03:33:15;;;;;;;;;;;3.90;99.90;;;;;;5051651;28;19925;-54
2022/03/19 03:35:40;;;;;;;;;;;3.90;99.90;;;;;;5050434;28;20897;-54
2022/03/19 03:38:06;;;;;;;;;;;3.90;99.90;;;;;;5051586;28;19931;-54
2022/03/19 03:40:31;;;;;;;;;;;3.90;99.90;;;;;;5051324;28;20032;-55
2022/03/19 03:42:56;;;;;;;;;;;3.80;99.90;;;;;;5049778;28;20366;-55
2022/03/19 03:45:22;;;;;;;;;;;3.80;99.90;;;;;;5047120;28;19925;-53
2022/03/19 03:47:49;;;;;;;;;;;3.80;99.90;;;;;;5050252;28;19987;-53
2022/03/19 03:50:15;;;;;;;;;;;3.80;99.90;;;;;;5050923;28;19925;-55
2022/03/19 03:52:40;;;;;;;;;;;3.80;99.90;;;;;;5051170;28;19929;-56
2022/03/19 03:55:07;;;;;;;;;;;3.70;99.90;;;;;;5050245;28;19979;-56
2022/03/19 03:57:34;;;;;;;;;;;3.70;99.90;;;;;;5050752;28;19925;-55
2022/03/19 04:00:03;;;;;;;;;;;3.70;99.90;;;;;;5050935;28;19979;-55
2022/03/19 04:02:28;;;;;;;;;;;3.70;99.90;;;;;;5033262;28;19932;-55
2022/03/19 04:04:54;;;;;;;;;;;3.70;99.90;;;;;;5049813;28;19924;-55
2022/03/19 04:07:21;;;;;;;;;;;3.60;99.90;;;;;;5050663;28;19979;-54
2022/03/19 04:09:46;;;;;;;;;;;3.60;99.90;;;;;;5050787;28;19932;-54
2022/03/19 04:12:12;;;;;;;;;;;3.60;99.90;;;;;;5051099;28;19925;-54
2022/03/19 04:14:38;;;;;;;;;;;3.60;99.90;;;;;;5051249;28;19924;-54
2022/03/19 04:17:04;;;;;;;;;;;3.60;99.90;;;;;;5050729;28;19968;-54
2022/03/19 04:19:30;;;;;;;;;;;3.70;99.90;;;;;;5049250;28;19929;-54
2022/03/19 04:21:55;;;;;;;;;;;3.60;99.90;;;;;;5063016;28;19931;-53
2022/03/19 04:24:21;;;;;;;;;;;3.60;99.90;;;;;;5053787;28;19929;-53
2022/03/19 04:26:46;;;;;;;;;;;3.60;99.90;;;;;;5052124;28;19924;-53
2022/03/19 04:29:12;;;;;;;;;;;3.60;99.90;;;;;;5053848;28;19925;-54
2022/03/19 04:31:37;;;;;;;;;;;3.70;99.90;;;;;;5052893;28;20008;-55
2022/03/19 04:34:02;;;;;;;;;;;3.60;99.90;;;;;;5053681;28;19925;-53
2022/03/19 04:36:31;;;;;;;;;;;3.70;99.90;;;;;;5053862;28;20389;-53
2022/03/19 04:38:57;;;;;;;;;;;3.70;99.90;;;;;;5054040;28;19932;-56
2022/03/19 04:41:23;;;;;;;;;;;3.70;99.90;;;;;;5051634;28;19933;-56
2022/03/19 04:43:48;;;;;;;;;;;3.70;99.90;;;;;;5054192;28;20416;-55
2022/03/19 04:46:14;;;;;;;;;;;3.70;99.90;;;;;;5050403;28;21105;-54
2022/03/19 04:48:42;;;;;;;;;;;3.70;99.90;;;;;;5052778;28;20386;-55
2022/03/19 04:51:08;;;;;;;;;;;3.70;99.90;;;;;;5052205;28;20011;-55
2022/03/19 04:53:34;;;;;;;;;;;3.70;99.90;;;;;;5052774;28;20458;-56
2022/03/19 04:55:59;;;;;;;;;;;3.80;99.90;;;;;;5053010;28;20012;-55
2022/03/19 04:58:25;;;;;;;;;;;3.80;99.90;;;;;;5054577;28;19931;-54
2022/03/19 05:00:50;;;;;;;;;;;3.80;99.90;;;;;;5051070;28;20314;-55
2022/03/19 05:03:16;;;;;;;;;;;3.70;99.90;;;;;;5054463;28;19978;-55
2022/03/19 05:05:41;;;;;;;;;;;3.70;99.90;;;;;;5051576;28;19929;-53
2022/03/19 05:08:07;;;;;;;;;;;3.70;99.90;;;;;;5053896;28;20389;-56
2022/03/19 05:13:18;;;;;;;;;;;3.60;99.90;;;;;;5053944;28;19975;-56
2022/03/19 05:15:43;;;;;;;;;;;3.60;99.90;;;;;;5048420;28;19982;-55
2022/03/19 05:18:09;;;;;;;;;;;3.50;99.90;;;;;;5052196;28;19925;-54
2022/03/19 05:20:35;;;;;;;;;;;3.50;99.90;;;;;;5041996;28;19928;-54
2022/03/19 05:23:00;;;;;;;;;;;3.50;99.90;;;;;;5052938;28;19970;-55
2022/03/19 05:25:26;;;;;;;;;;;3.50;99.90;;;;;;5051159;28;19928;-54
2022/03/19 05:27:52;;;;;;;;;;;3.40;99.90;;;;;;5053067;28;19925;-55
2022/03/19 05:30:17;;;;;;;;;;;3.40;99.90;;;;;;5052527;28;19986;-55
2022/03/19 05:32:43;;;;;;;;;;;3.40;99.90;;;;;;5043665;28;19929;-57
2022/03/19 05:35:09;;;;;;;;;;;3.40;99.90;;;;;;5042754;28;19933;-54
2022/03/19 05:37:34;;;;;;;;;;;3.40;99.90;;;;;;5047832;28;20477;-55
2022/03/19 05:40:01;;;;;;;;;;;3.30;99.90;;;;;;5043484;28;19929;-54
2022/03/19 05:42:28;;;;;;;;;;;3.30;99.90;;;;;;5042983;28;20365;-56
2022/03/19 05:44:54;;;;;;;;;;;3.30;99.90;;;;;;5042657;28;19924;-55
2022/03/19 05:47:19;;;;;;;;;;;3.30;99.90;;;;;;5047483;28;19925;-55
2022/03/19 05:49:45;;;;;;;;;;;3.30;99.90;;;;;;5048898;28;19932;-52
2022/03/19 05:52:10;;;;;;;;;;;3.30;99.90;;;;;;5050253;28;19932;-54
2022/03/19 05:54:36;;;;;;;;;;;3.30;99.90;;;;;;5051657;28;20409;-55
2022/03/19 05:57:01;;;;;;;;;;;3.40;99.90;;;;;;5050352;28;19925;-55
2022/03/19 05:59:27;;;;;;;;;;;3.40;99.90;;;;;;5050651;28;20387;-54
2022/03/19 06:01:52;;;;;;;;;;;3.40;99.90;;;;;;5049530;28;20066;-52
2022/03/19 06:04:18;;;;;;;;;;;3.50;99.90;;;;;;5052411;28;19932;-54
2022/03/19 06:06:43;;;;;;;;;;;3.50;99.90;;;;;;5050040;28;19932;-56
2022/03/19 06:09:08;;;;;;;;;;;3.50;99.90;;;;;;5048502;28;20301;-54
2022/03/19 06:11:34;;;;;;;;;;;3.60;99.90;;;;;;5049982;28;20390;-54
2022/03/19 06:14:00;;;;;;;;;;;3.60;99.90;;;;;;5051973;28;19925;-53
2022/03/19 06:16:26;;;;;;;;;;;3.70;99.90;;;;;;5050490;28;19928;-54
2022/03/19 06:18:51;;;;;;;;;;;3.70;99.90;;;;;;5052789;28;19932;-54
2022/03/19 06:21:18;;;;;;;;;;;3.70;99.90;;;;;;5049300;28;20387;-54
2022/03/19 06:23:47;;;;;;;;;;;3.80;99.90;;;;;;5050705;28;19925;-54
2022/03/19 06:26:13;;;;;;;;;;;3.80;99.90;;;;;;5050084;28;20369;-56
2022/03/19 06:28:38;;;;;;;;;;;3.90;99.90;;;;;;5050431;28;19972;-55
2022/03/19 06:31:04;;;;;;;;;;;4.00;99.90;;;;;;5050080;28;20452;-55
2022/03/19 06:33:29;;;;;;;;;;;4.00;99.90;;;;;;5051340;28;19931;-55
2022/03/19 06:38:39;;;;;;;;;;;4.20;99.90;;;;;;5052213;28;19947;-55
2022/03/19 06:41:04;;;;;;;;;;;4.30;99.90;;;;;;5047968;28;20390;-52
2022/03/19 06:43:30;;;;;;;;;;;4.40;99.90;;;;;;5049756;28;20367;-56
2022/03/19 06:45:58;;;;;;;;;;;4.70;99.90;;;;;;5049420;28;19924;-55
2022/03/19 06:48:27;;;;;;;;;;;5.50;99.90;;;;;;5050575;28;19970;-55
2022/03/19 06:50:54;;;;;;;;;;;6.20;99.90;;;;;;5048517;28;19968;-54
2022/03/19 06:53:19;;;;;;;;;;;;;;;;;;5049172;28;20460;-54
2022/03/19 06:55:45;;;;;;;;;;;7.40;99.90;;;;;;5050336;28;19924;-54
2022/03/19 06:58:10;;;;;;;;;;;7.50;99.90;;;;;;5051087;28;19924;-53
2022/03/19 07:00:37;;;;;;;;;;;7.80;99.90;;;;;;5049565;28;20067;-53
2022/03/19 07:03:02;;;;;;;;;;;8.00;99.90;;;;;;5047747;28;19925;-51
2022/03/19 07:05:28;;;;;;;;;;;8.10;99.90;;;;;;5047714;28;20001;-53
2022/03/19 07:07:55;;;;;;;;;;;8.40;99.90;;;;;;5048761;28;19939;-54
2022/03/19 07:10:20;;;;;;;;;;;8.80;99.90;;;;;;5050683;28;19931;-55
2022/03/19 07:12:47;;;;;;;;;;;8.80;99.90;;;;;;5047973;28;20625;-53
2022/03/19 07:15:16;;;;;;;;;;;8.00;99.90;;;;;;5042418;28;20039;-56
2022/03/19 07:17:43;;;;;;;;;;;7.40;99.90;;;;;;5042834;28;19935;-55
2022/03/19 07:20:09;;;;;;;;;;;7.20;99.90;;;;;;5046029;28;19937;-55
2022/03/19 07:22:48;;;;;;;;;;;7.00;99.90;;;;;;5044247;28;19932;-54
2022/03/19 07:25:14;;;;;;;;;;;6.80;99.90;;;;;;5031714;28;19925;-56
2022/03/19 07:27:39;;;;;;;;;;;6.60;99.90;;;;;;5048739;28;19932;-55
2022/03/19 07:30:05;;;;;;;;;;;6.60;99.90;;;;;;5048357;28;20432;-56
2022/03/19 07:32:30;;;;;;;;;;;6.60;99.90;;;;;;5045385;28;19925;-56
2022/03/19 07:34:56;;;;;;;;;;;6.70;99.90;;;;;;5050236;28;19924;-55
2022/03/19 07:37:22;;;;;;;;;;;6.70;99.90;;;;;;5049270;28;20019;-56
2022/03/19 07:39:47;;;;;;;;;;;6.70;99.90;;;;;;5039515;28;19933;-57
2022/03/19 07:42:13;;;;;;;;;;;6.80;99.90;;;;;;5045767;28;20025;-55
2022/03/19 07:44:38;;;;;;;;;;;6.80;99.90;;;;;;5046420;28;20390;-57
2022/03/19 07:47:04;;;;;;;;;;;6.90;99.90;;;;;;5051463;28;19931;-56
2022/03/19 07:49:29;;;;;;;;;;;7.10;99.90;;;;;;5051407;28;19994;-56
2022/03/19 07:51:55;;;;;;;;;;;7.10;99.90;;;;;;5048620;28;19931;-57
2022/03/19 07:54:23;;;;;;;;;;;7.20;99.90;;;;;;5051547;28;20012;-55
2022/03/19 07:56:51;;;;;;;;;;;7.20;99.90;;;;;;5052916;28;20002;-56
2022/03/19 07:59:16;;;;;;;;;;;7.30;99.90;;;;;;5057287;28;20286;-56
2022/03/19 08:01:42;;;;;;;;;;;7.50;99.90;;;;;;5056348;28;20012;-56
2022/03/19 08:04:07;;;;;;;;;;;7.50;99.90;;;;;;5056773;28;20295;-56
2022/03/19 08:06:33;;;;;;;;;;;7.60;99.90;;;;;;5056257;28;20379;-56
2022/03/19 08:08:58;;;;;;;;;;;7.70;99.90;;;;;;5055828;28;20015;-56
2022/03/19 08:11:24;;;;;;;;;;;7.70;99.90;;;;;;5056560;28;19925;-57
2022/03/19 08:13:49;;;;;;;;;;;7.90;99.90;;;;;;5054457;28;19940;-56
2022/03/19 08:16:15;;;;;;;;;;;7.80;99.90;;;;;;5055426;28;19924;-55
2022/03/19 08:18:41;;;;;;;;;;;7.80;99.90;;;;;;5055048;28;19929;-56
2022/03/19 08:21:06;;;;;;;;;;;7.90;99.90;;;;;;5055522;28;19925;-55
2022/03/19 08:23:34;;;;;;;;;;;8.00;99.90;;;;;;5054290;28;20026;-55
2022/03/19 08:25:59;;;;;;;;;;;8.00;99.90;;;;;;5054960;28;20382;-55
2022/03/19 08:28:25;;;;;;;;;;;8.00;99.90;;;;;;5054821;28;19928;-55
2022/03/19 08:30:51;;;;;;;;;;;8.20;99.90;;;;;;5054656;28;19932;-56
2022/03/19 08:33:17;;;;;;;;;;;8.30;99.90;;;;;;5054614;28;20465;-56
2022/03/19 08:35:42;;;;;;;;;;;8.40;99.90;;;;;;5050931;28;20015;-57
2022/03/19 08:40:52;;;;;;;;;;;8.50;99.90;;;;;;5054517;28;19971;-55
2022/03/19 08:43:17;;;;;;;;;;;8.60;99.90;;;;;;5054443;28;19965;-55
2022/03/19 08:45:43;;;;;;;;;;;8.80;99.90;;;;;;5054258;28;20313;-60
2022/03/19 08:48:09;;;;;;;;;;;8.80;99.90;;;;;;5054464;28;19979;-56
2022/03/19 08:50:35;;;;;;;;;;;8.90;99.90;;;;;;5052585;28;19929;-55
2022/03/19 08:53:00;;;;;;;;;;;9.00;99.90;;;;;;5053525;28;20382;-56
2022/03/19 08:55:25;;;;;;;;;;;9.00;99.90;;;;;;5052721;28;19925;-54
2022/03/19 08:57:51;;;;;;;;;;;9.00;99.90;;;;;;5054100;28;20018;-56
2022/03/19 09:00:17;;;;;;;;;;;9.00;99.90;;;;;;5054300;28;20470;-57
2022/03/19 09:02:43;;;;;;;;;;;9.10;99.90;;;;;;5054559;28;20256;-56
2022/03/19 09:05:08;;;;;;;;;;;9.20;99.90;;;;;;5054227;28;19931;-55
2022/03/19 09:07:34;;;;;;;;;;;9.40;99.90;;;;;;5052679;28;20334;-56
2022/03/19 09:10:00;;;;;;;;;;;9.40;99.90;;;;;;5053365;28;19924;-55
2022/03/19 09:12:25;;;;;;;;;;;9.70;99.90;;;;;;5054417;28;19925;-54
2022/03/19 09:14:51;;;;;;;;;;;9.50;99.90;;;;;;5054216;28;20435;-52
2022/03/19 09:17:17;;;;;;;;;;;9.60;99.90;;;;;;5054247;28;19924;-54
2022/03/19 09:19:42;;;;;;;;;;;9.70;99.90;;;;;;5053307;28;20058;-54
2022/03/19 09:22:08;;;;;;;;;;;9.70;99.90;;;;;;5052361;28;20009;-54
2022/03/19 09:24:33;;;;;;;;;;;9.80;99.90;;;;;;5053608;28;19925;-53
2022/03/19 09:26:59;;;;;;;;;;;9.90;99.90;;;;;;5054986;28;19925;-53
2022/03/19 09:29:26;;;;;;;;;;;;;;;;;;5053648;28;19924;-53
2022/03/19 09:31:51;;;;;;;;;;;10.00;99.90;;;;;;5052846;28;20023;-55
2022/03/19 09:34:17;;;;;;;;;;;10.20;99.90;;;;;;5053477;28;20051;-55
2022/03/19 09:36:46;;;;;;;;;;;10.20;98.80;;;;;;5053610;28;20029;-56
2022/03/19 09:39:12;;;;;;;;;;;10.40;98.10;;;;;;5053745;28;19924;-56
2022/03/19 09:41:40;;;;;;;;;;;10.30;95.00;;;;;;5053818;28;19925;-56
2022/03/19 09:44:05;;;;;;;;;;;10.30;94.70;;;;;;5053814;28;20055;-56
2022/03/19 09:46:31;;;;;;;;;;;10.40;95.80;;;;;;5034881;28;19933;-55
2022/03/19 09:48:56;;;;;;;;;;;10.40;92.20;;;;;;5054814;28;19931;-56
2022/03/19 09:51:22;;;;;;;;;;;10.60;94.80;;;;;;5054527;28;19931;-55
2022/03/19 09:53:48;;;;;;;;;;;10.60;94.70;;;;;;5054609;28;19925;-55
2022/03/19 09:56:14;;;;;;;;;;;10.50;90.90;;;;;;5053803;28;19925;-55
2022/03/19 09:58:39;;;;;;;;;;;10.70;93.20;;;;;;5054513;28;19925;-56
2022/03/19 10:01:05;;;;;;;;;;;10.80;92.20;;;;;;5054214;28;19971;-54
2022/03/19 10:03:32;;;;;;;;;;;10.80;91.70;;;;;;5054555;28;19982;-56
2022/03/19 10:08:53;;;;;;;;;;;11.10;93.50;;;;;;5054275;28;19932;-55
2022/03/19 10:11:18;;;;;;;;;;;11.10;91.80;;;;;;5054345;28;19931;-56
2022/03/19 10:13:45;;;;;;;;;;;11.20;92.00;;;;;;5053945;28;19925;-56
2022/03/19 10:16:17;;;;;;;;;;;11.40;91.30;;;;;;5054391;28;20370;-56
2022/03/19 10:18:43;;;;;;;;;;;11.30;90.60;;;;;;5053594;28;19925;-56
2022/03/19 10:21:15;;;;;;;;;;;11.30;90.00;;;;;;5054163;28;20282;-55
2022/03/19 10:23:41;;;;;;;;;;;11.40;86.30;;;;;;5054080;28;19924;-56
2022/03/19 10:26:07;;;;;;;;;;;11.40;88.90;;;;;;5053907;28;20016;-56
2022/03/19 10:28:33;;;;;;;;;;;11.60;87.80;;;;;;5053772;28;20058;-56
2022/03/19 10:30:59;;;;;;;;;;;11.60;83.70;;;;;;5053938;28;20050;-56
2022/03/19 10:33:30;;;;;;;;;;;11.50;82.00;;;;;;5053890;28;19925;-56
2022/03/19 10:36:22;;;;;;;;;;;11.60;80.90;;;;;;5053854;28;20007;-55
2022/03/19 10:38:48;;;;;;;;;;;11.70;78.90;;;;;;5051276;28;19925;-54
2022/03/19 10:41:17;;;;;;;;;;;11.70;73.40;;;;;;5053894;28;19931;-55
2022/03/19 10:43:45;;;;;;;;;;;11.70;76.10;;;;;;5053784;28;19929;-55
2022/03/19 10:46:11;;;;;;;;;;;11.90;75.60;;;;;;5053635;28;19925;-56
2022/03/19 10:48:37;;;;;;;;;;;11.70;66.40;;;;;;5053671;28;20002;-56
2022/03/19 10:51:08;;;;;;;;;;;11.70;63.80;;;;;;5053336;28;20337;-56
2022/03/19 10:53:33;;;;;;;;;;;11.80;64.20;;;;;;5053450;28;20415;-56
2022/03/19 10:56:01;;;;;;;;;;;11.80;63.70;;;;;;5053592;28;19925;-56
2022/03/19 10:58:26;;;;;;;;;;;11.90;64.20;;;;;;5053451;28;20000;-55
2022/03/19 11:00:52;;;;;;;;;;;12.10;66.00;;;;;;5053342;28;20398;-56
2022/03/19 11:03:19;;;;;;;;;;;12.00;64.00;;;;;;5053376;28;20036;-56
2022/03/19 11:05:45;;;;;;;;;;;12.10;62.60;;;;;;5053314;28;20019;-56
2022/03/19 11:08:11;;;;;;;;;;;12.10;62.70;;;;;;5053453;28;19929;-55
2022/03/19 11:10:37;;;;;;;;;;;12.30;63.50;;;;;;5053285;28;20309;-56
2022/03/19 11:13:03;;;;;;;;;;;12.30;62.30;;;;;;5053228;28;19932;-56
2022/03/19 11:15:34;;;;;;;;;;;12.40;61.90;;;;;;5053294;28;20294;-56
2022/03/19 11:18:01;;;;;;;;;;;12.40;61.80;;;;;;5053165;28;19932;-56
2022/03/19 11:20:26;;;;;;;;;;;12.40;60.90;;;;;;5053180;28;19970;-56
2022/03/19 11:22:53;;;;;;;;;;;12.50;60.20;;;;;;5053238;28;19928;-56
2022/03/19 11:25:22;;;;;;;;;;;12.70;60.60;;;;;;5053196;28;19924;-56
2022/03/19 11:27:49;;;;;;;;;;;12.60;58.20;;;;;;5053155;28;19932;-56
2022/03/19 11:30:18;;;;;;;;;;;12.60;57.80;;;;;;5054516;28;19931;-56
2022/03/19 11:33:03;;;;;;;;;;;12.80;58.40;;;;;;5057464;28;19931;-54
2022/03/19 11:35:29;;;;;;;;;;;12.90;58.40;;;;;;5057229;28;19931;-55
2022/03/19 11:38:00;;;;;;;;;;;12.90;56.70;;;;;;5057125;28;19925;-56
2022/03/19 11:40:28;;;;;;;;;;;13.10;56.90;;;;;;5057039;28;19932;-56
2022/03/19 11:42:55;;;;;;;;;;;13.10;56.50;;;;;;5056915;28;20030;-56
2022/03/19 11:45:20;;;;;;;;;;;12.90;55.60;;;;;;5056881;28;19991;-56
2022/03/19 11:47:46;;;;;;;;;;;12.90;55.50;;;;;;5057053;28;19960;-55
2022/03/19 11:50:25;;;;;;;;;;;13.00;54.10;;;;;;5056802;28;20413;-56
2022/03/19 11:52:54;;;;;;;;;;;13.00;53.60;;;;;;5056722;28;19982;-56
2022/03/19 11:55:22;;;;;;;;;;;13.10;54.90;;;;;;5056803;28;19924;-56
2022/03/19 11:57:56;;;;;;;;;;;13.00;52.70;;;;;;5056963;28;19925;-56
2022/03/19 12:00:26;;;;;;;;;;;13.10;52.60;;;;;;5056629;28;20372;-56
2022/03/19 12:03:04;;;;;;;;;;;13.10;51.70;;;;;;5056826;28;19928;-56
2022/03/19 12:05:30;;;;;;;;;;;13.10;50.00;;;;;;5056696;28;19932;-56
2022/03/19 12:07:57;;;;;;;;;;;13.10;51.00;;;;;;5056665;28;19931;-56
2022/03/19 12:10:27;;;;;;;;;;;13.20;49.70;;;;;;5056491;28;20355;-56
2022/03/19 12:12:53;;;;;;;;;;;13.00;48.00;;;;;;5056802;28;20448;-56
2022/03/19 12:15:33;;;;;;;;;;;13.20;50.20;;;;;;5056414;28;19968;-55
2022/03/19 12:18:17;;;;;;;;;;;13.30;50.60;;;;;;5056484;28;20301;-56
2022/03/19 12:20:43;;;;;;;;;;;13.50;50.70;;;;;;5056122;28;19924;-56
2022/03/19 12:23:10;;;;;;;;;;;13.40;48.70;;;;;;5056398;28;19947;-57
2022/03/19 12:25:39;;;;;;;;;;;13.50;49.40;;;;;;5056361;28;19999;-56
2022/03/19 12:28:04;;;;;;;;;;;13.40;49.00;;;;;;5056500;28;19925;-56
2022/03/19 12:30:31;;;;;;;;;;;13.50;49.90;;;;;;5056229;28;19924;-56
2022/03/19 12:32:57;;;;;;;;;;;13.50;49.30;;;;;;5056077;28;19925;-56
2022/03/19 12:35:24;;;;;;;;;;;13.40;48.70;;;;;;5055871;28;19931;-56
2022/03/19 12:37:54;;;;;;;;;;;13.40;50.00;;;;;;5056263;28;20298;-56
2022/03/19 12:40:20;;;;;;;;;;;13.40;49.40;;;;;;5056172;28;19928;-56
2022/03/19 12:42:50;;;;;;;;;;;13.40;48.80;;;;;;5055273;28;19925;-56
2022/03/19 12:45:15;;;;;;;;;;;13.40;48.70;;;;;;5055852;28;19924;-56
2022/03/19 12:47:41;;;;;;;;;;;13.30;48.20;;;;;;5055763;28;19931;-56
2022/03/19 12:50:06;;;;;;;;;;;13.50;49.30;;;;;;5055753;28;19931;-56
2022/03/19 12:52:33;;;;;;;;;;;13.40;47.10;;;;;;5055602;28;20046;-56
2022/03/19 12:55:00;;;;;;;;;;;13.10;45.50;;;;;;5055637;28;20310;-56
2022/03/19 12:57:25;;;;;;;;;;;13.10;46.60;;;;;;5055594;28;20368;-56
2022/03/19 12:59:52;;;;;;;;;;;13.20;49.10;;;;;;5055592;28;19979;-56
2022/03/19 13:02:18;;;;;;;;;;;13.30;48.40;;;;;;5055455;28;19924;-56
2022/03/19 13:04:45;;;;;;;;;;;13.20;48.40;;;;;;5055325;28;19932;-56
2022/03/19 13:07:12;;;;;;;;;;;13.20;48.00;;;;;;5037494;28;20370;-56
2022/03/19 13:09:39;;;;;;;;;;;13.30;48.80;;;;;;5055582;28;20385;-56
2022/03/19 13:12:10;;;;;;;;;;;13.30;48.90;;;;;;5055468;28;19929;-56
2022/03/19 13:14:36;;;;;;;;;;;13.30;48.30;;;;;;5055297;28;20019;-56
2022/03/19 13:17:02;;;;;;;;;;;13.00;47.50;;;;;;5055169;28;20432;-56
2022/03/19 13:19:29;;;;;;;;;;;13.20;49.60;;;;;;5055333;28;19931;-56
2022/03/19 13:21:56;;;;;;;;;;;13.20;49.90;;;;;;5055345;28;19933;-57
2022/03/19 13:24:23;;;;;;;;;;;13.30;50.60;;;;;;5055246;28;19980;-56
2022/03/19 13:26:48;;;;;;;;;;;13.40;50.70;;;;;;5055201;28;20298;-56
2022/03/19 13:29:15;;;;;;;;;;;13.40;50.20;;;;;;5055067;28;19964;-56
2022/03/19 13:31:44;;;;;;;;;;;13.60;50.60;;;;;;5055028;28;19925;-56
2022/03/19 13:34:22;;;;;;;;;;;13.40;48.80;;;;;;5054961;28;20390;-56
2022/03/19 13:36:53;;;;;;;;;;;13.50;48.60;;;;;;5054962;28;19924;-56
2022/03/19 13:39:39;;;;;;;;;;;13.50;48.30;;;;;;5054902;28;19925;-56
2022/03/19 13:42:09;;;;;;;;;;;13.20;49.10;;;;;;5054820;28;19924;-56
2022/03/19 13:44:37;;;;;;;;;;;13.30;49.70;;;;;;5054921;28;19971;-56
2022/03/19 13:47:07;;;;;;;;;;;13.30;50.50;;;;;;5054726;28;19931;-56
2022/03/19 13:49:43;;;;;;;;;;;13.30;51.50;;;;;;5054741;28;20011;-56
2022/03/19 13:52:30;;;;;;;;;;;13.50;50.50;;;;;;5054420;28;19978;-56
2022/03/19 13:54:59;;;;;;;;;;;13.40;49.80;;;;;;5053656;28;19932;-56
2022/03/19 13:57:28;;;;;;;;;;;13.30;49.70;;;;;;5054611;28;19925;-56
2022/03/19 14:00:04;;;;;;;;;;;13.50;50.50;;;;;;5054491;28;19925;-54
2022/03/19 14:02:29;;;;;;;;;;;13.50;50.30;;;;;;5054380;28;20015;-56
2022/03/19 14:04:58;;;;;;;;;;;13.50;51.00;;;;;;5054229;28;19979;-56
2022/03/19 14:07:31;;;;;;;;;;;13.40;50.50;;;;;;5054439;28;19979;-56
2022/03/19 14:09:57;;;;;;;;;;;13.30;50.40;;;;;;5054399;28;19925;-56
2022/03/19 14:12:33;;;;;;;;;;;13.40;52.00;;;;;;5054068;28;20404;-55
2022/03/19 14:14:59;;;;;;;;;;;13.50;52.10;;;;;;5054236;28;19931;-56
2022/03/19 14:17:41;;;;;;;;;;;13.40;52.30;;;;;;5036117;28;20341;-56
2022/03/19 14:20:07;;;;;;;;;;;13.30;52.30;;;;;;5054249;28;19931;-56
2022/03/19 14:22:32;;;;;;;;;;;13.50;53.20;;;;;;5054054;28;19924;-57
2022/03/19 14:24:58;;;;;;;;;;;13.50;53.60;;;;;;5053994;28;20008;-56
2022/03/19 14:27:24;;;;;;;;;;;13.40;52.10;;;;;;5054014;28;19925;-55
2022/03/19 14:29:49;;;;;;;;;;;13.40;51.50;;;;;;5053883;28;20268;-56
2022/03/19 14:32:15;;;;;;;;;;;13.30;50.60;;;;;;5053725;28;19999;-56
2022/03/19 14:34:40;;;;;;;;;;;13.30;50.40;;;;;;5053851;28;19925;-56
2022/03/19 14:37:06;;;;;;;;;;;13.30;50.00;;;;;;5053665;28;19925;-56
2022/03/19 14:39:31;;;;;;;;;;;13.40;49.80;;;;;;5053813;28;19982;-56
2022/03/19 14:41:59;;;;;;;;;;;13.40;50.20;;;;;;5054135;28;19925;-56
2022/03/19 14:44:24;;;;;;;;;;;13.40;50.00;;;;;;5053633;28;19924;-56